SPTAZ EPBC-EPBC
Flight info
| Callsign | SPTAZ |
|---|---|
| Flight time | 0h 31m |
| Altitude | 3000 |
| Route | EPBC/10 EPWAL EPWAJ EPWAZ EPWAN EPWAO EPWAE EPWA/33 EPWAE EPWAO EPWAN EPWAZ EPWAJ EPWAL EPBC/10 |
| Aircraft | DA40/L-V/N |
Departure
| Time | 2026-05-05 06:59 |
|---|---|
| Airport | Warsaw Babice Airport (EPBC) |
Arrival
| Time | 2026-05-05 07:30 |
|---|---|
| Airport | Warsaw Babice Airport (EPBC) |
| Time | Latitude | Longitude | Altitude | Speed | Heading |
|---|---|---|---|---|---|
| 2026-05-05 06:45 | 52.27249 | 20.91089 | 351 ft | 0 kts | 155° |
| 2026-05-05 06:49 | 52.27245 | 20.91094 | 351 ft | 1 kts | 135° |
| 2026-05-05 06:49 | 52.27231 | 20.91099 | 351 ft | 2 kts | 200° |
| 2026-05-05 06:49 | 52.27218 | 20.91093 | 351 ft | 0 kts | 188° |
| 2026-05-05 06:50 | 52.27212 | 20.91087 | 351 ft | 2 kts | 235° |
| 2026-05-05 06:50 | 52.27203 | 20.91080 | 351 ft | 3 kts | 345° |
| 2026-05-05 06:50 | 52.27204 | 20.91077 | 351 ft | 1 kts | 134° |
| 2026-05-05 06:50 | 52.27206 | 20.91078 | 351 ft | 1 kts | 281° |
| 2026-05-05 06:51 | 52.27194 | 20.91063 | 351 ft | 1 kts | 239° |
| 2026-05-05 06:51 | 52.27192 | 20.91046 | 351 ft | 3 kts | 262° |
| 2026-05-05 06:51 | 52.27187 | 20.90977 | 351 ft | 9 kts | 270° |
| 2026-05-05 06:51 | 52.27198 | 20.90859 | 351 ft | 10 kts | 291° |
| 2026-05-05 06:52 | 52.27202 | 20.90769 | 351 ft | 7 kts | 277° |
| 2026-05-05 06:52 | 52.27204 | 20.90673 | 351 ft | 10 kts | 278° |
| 2026-05-05 06:52 | 52.27211 | 20.90540 | 351 ft | 12 kts | 270° |
| 2026-05-05 06:52 | 52.27217 | 20.90394 | 351 ft | 16 kts | 277° |
| 2026-05-05 06:53 | 52.27250 | 20.90146 | 351 ft | 21 kts | 260° |
| 2026-05-05 06:53 | 52.27195 | 20.89956 | 351 ft | 16 kts | 239° |
| 2026-05-05 06:53 | 52.27129 | 20.89846 | 351 ft | 13 kts | 191° |
| 2026-05-05 06:53 | 52.27051 | 20.89877 | 351 ft | 8 kts | 101° |
| 2026-05-05 06:54 | 52.27039 | 20.89972 | 351 ft | 3 kts | 109° |
| 2026-05-05 06:58 | 52.27037 | 20.89985 | 351 ft | 3 kts | 104° |
| 2026-05-05 06:58 | 52.27029 | 20.90043 | 351 ft | 7 kts | 102° |
| 2026-05-05 06:58 | 52.26975 | 20.90425 | 365 ft | 60 kts | 106° |
| 2026-05-05 06:58 | 52.26871 | 20.91073 | 582 ft | 65 kts | 103° |
| 2026-05-05 06:59 | 52.26745 | 20.91844 | 743 ft | 81 kts | 102° |
| 2026-05-05 06:59 | 52.26648 | 20.92848 | 937 ft | 96 kts | 97° |
| 2026-05-05 06:59 | 52.26647 | 20.93914 | 1193 ft | 103 kts | 68° |
| 2026-05-05 06:59 | 52.27258 | 20.94648 | 1271 ft | 123 kts | 12° |
| 2026-05-05 07:00 | 52.28157 | 20.94593 | 1362 ft | 133 kts | 355° |
| 2026-05-05 07:00 | 52.29084 | 20.94446 | 1425 ft | 139 kts | 356° |
| 2026-05-05 07:00 | 52.30080 | 20.94271 | 1418 ft | 146 kts | 354° |
| 2026-05-05 07:00 | 52.31101 | 20.93940 | 1379 ft | 152 kts | 349° |
| 2026-05-05 07:01 | 52.32079 | 20.93627 | 1298 ft | 126 kts | 352° |
| 2026-05-05 07:01 | 52.32784 | 20.93902 | 1254 ft | 96 kts | 41° |
| 2026-05-05 07:01 | 52.33055 | 20.94778 | 1127 ft | 86 kts | 88° |
| 2026-05-05 07:01 | 52.32848 | 20.95635 | 1055 ft | 78 kts | 125° |
| 2026-05-05 07:02 | 52.32478 | 20.96372 | 1090 ft | 89 kts | 131° |
| 2026-05-05 07:02 | 52.31976 | 20.97047 | 1119 ft | 97 kts | 143° |
| 2026-05-05 07:02 | 52.31406 | 20.97627 | 1206 ft | 98 kts | 146° |
| 2026-05-05 07:02 | 52.30821 | 20.98316 | 1165 ft | 109 kts | 142° |
| 2026-05-05 07:03 | 52.30205 | 20.99058 | 1187 ft | 109 kts | 142° |
| 2026-05-05 07:03 | 52.29573 | 20.99770 | 1177 ft | 113 kts | 145° |
| 2026-05-05 07:03 | 52.28882 | 21.00440 | 1173 ft | 116 kts | 152° |
| 2026-05-05 07:03 | 52.28111 | 21.00852 | 1117 ft | 122 kts | 167° |
| 2026-05-05 07:04 | 52.27251 | 21.00986 | 1077 ft | 124 kts | 171° |
| 2026-05-05 07:04 | 52.26387 | 21.01215 | 1030 ft | 126 kts | 165° |
| 2026-05-05 07:04 | 52.25572 | 21.01666 | 1016 ft | 118 kts | 152° |
| 2026-05-05 07:04 | 52.24910 | 21.02305 | 1232 ft | 107 kts | 146° |
| 2026-05-05 07:05 | 52.24221 | 21.03103 | 1159 ft | 123 kts | 143° |
| 2026-05-05 07:05 | 52.23559 | 21.03853 | 1273 ft | 108 kts | 144° |
| 2026-05-05 07:05 | 52.22928 | 21.04492 | 1296 ft | 105 kts | 146° |
| 2026-05-05 07:05 | 52.22353 | 21.05289 | 1317 ft | 112 kts | 134° |
| 2026-05-05 07:06 | 52.21981 | 21.06446 | 1269 ft | 120 kts | 105° |
| 2026-05-05 07:06 | 52.21926 | 21.07826 | 1218 ft | 126 kts | 96° |
| 2026-05-05 07:06 | 52.21621 | 21.09069 | 1136 ft | 115 kts | 141° |
| 2026-05-05 07:06 | 52.20962 | 21.09007 | 1092 ft | 103 kts | 218° |
| 2026-05-05 07:07 | 52.20459 | 21.08158 | 1004 ft | 105 kts | 234° |
| 2026-05-05 07:07 | 52.20044 | 21.07129 | 956 ft | 107 kts | 237° |
| 2026-05-05 07:07 | 52.19715 | 21.06195 | 1314 ft | 102 kts | 240° |
| 2026-05-05 07:07 | 52.19355 | 21.05139 | 1463 ft | 103 kts | 242° |
| 2026-05-05 07:08 | 52.19053 | 21.04059 | 1587 ft | 107 kts | 243° |
| 2026-05-05 07:08 | 52.18731 | 21.02940 | 1645 ft | 115 kts | 243° |
| 2026-05-05 07:08 | 52.18399 | 21.01724 | 1645 ft | 123 kts | 244° |
| 2026-05-05 07:08 | 52.17840 | 21.00874 | 1577 ft | 107 kts | 194° |
| 2026-05-05 07:09 | 52.17121 | 21.01112 | 1357 ft | 107 kts | 161° |
| 2026-05-05 07:09 | 52.16486 | 21.01560 | 1305 ft | 93 kts | 160° |
| 2026-05-05 07:09 | 52.15899 | 21.01957 | 1163 ft | 92 kts | 163° |
| 2026-05-05 07:09 | 52.15321 | 21.02270 | 1095 ft | 84 kts | 168° |
| 2026-05-05 07:10 | 52.14779 | 21.02489 | 1062 ft | 76 kts | 174° |
| 2026-05-05 07:10 | 52.14273 | 21.02520 | 1040 ft | 77 kts | 196° |
| 2026-05-05 07:10 | 52.13875 | 21.01986 | 1048 ft | 81 kts | 248° |
| 2026-05-05 07:10 | 52.13789 | 21.01022 | 1016 ft | 73 kts | 263° |
| 2026-05-05 07:11 | 52.13790 | 21.00343 | 978 ft | 52 kts | 271° |
| 2026-05-05 07:11 | 52.13759 | 20.99768 | 889 ft | 52 kts | 268° |
| 2026-05-05 07:11 | 52.13929 | 20.99185 | 828 ft | 68 kts | 309° |
| 2026-05-05 07:11 | 52.14327 | 20.98676 | 792 ft | 71 kts | 322° |
| 2026-05-05 07:12 | 52.14766 | 20.98295 | 644 ft | 71 kts | 327° |
| 2026-05-05 07:12 | 52.15194 | 20.97924 | 515 ft | 67 kts | 327° |
| 2026-05-05 07:12 | 52.15606 | 20.97568 | 414 ft | 64 kts | 327° |
| 2026-05-05 07:12 | 52.15969 | 20.97250 | 366 ft | 56 kts | 327° |
| 2026-05-05 07:13 | 52.16314 | 20.96953 | 360 ft | 59 kts | 327° |
| 2026-05-05 07:13 | 52.16727 | 20.96604 | 485 ft | 68 kts | 330° |
| 2026-05-05 07:13 | 52.17143 | 20.96279 | 655 ft | 67 kts | 321° |
| 2026-05-05 07:13 | 52.17543 | 20.95924 | 830 ft | 67 kts | 329° |
| 2026-05-05 07:14 | 52.17976 | 20.95631 | 982 ft | 69 kts | 334° |
| 2026-05-05 07:14 | 52.18498 | 20.95661 | 1198 ft | 88 kts | 25° |
| 2026-05-05 07:14 | 52.19024 | 20.96473 | 1268 ft | 117 kts | 57° |
| 2026-05-05 07:14 | 52.19407 | 20.97754 | 1324 ft | 133 kts | 68° |
| 2026-05-05 07:15 | 52.19781 | 20.99168 | 1486 ft | 134 kts | 69° |
| 2026-05-05 07:15 | 52.20108 | 21.00587 | 1485 ft | 128 kts | 83° |
| 2026-05-05 07:15 | 52.19791 | 21.01748 | 1369 ft | 119 kts | 150° |
| 2026-05-05 07:15 | 52.18983 | 21.01989 | 1333 ft | 120 kts | 184° |
| 2026-05-05 07:16 | 52.18177 | 21.02064 | 1356 ft | 114 kts | 169° |
| 2026-05-05 07:16 | 52.17407 | 21.02303 | 1313 ft | 109 kts | 176° |
| 2026-05-05 07:16 | 52.16689 | 21.02574 | 1330 ft | 102 kts | 171° |
| 2026-05-05 07:16 | 52.15985 | 21.02731 | 1246 ft | 106 kts | 179° |
| 2026-05-05 07:17 | 52.15248 | 21.02710 | 1205 ft | 104 kts | 187° |
| 2026-05-05 07:17 | 52.14547 | 21.02541 | 1175 ft | 102 kts | 202° |
| 2026-05-05 07:17 | 52.14024 | 21.01766 | 1073 ft | 105 kts | 236° |
| 2026-05-05 07:17 | 52.13793 | 21.00624 | 1008 ft | 85 kts | 262° |
| 2026-05-05 07:18 | 52.13739 | 20.99920 | 945 ft | 53 kts | 271° |
| 2026-05-05 07:18 | 52.13864 | 20.99267 | 874 ft | 64 kts | 288° |
| 2026-05-05 07:18 | 52.14177 | 20.98751 | 818 ft | 72 kts | 329° |
| 2026-05-05 07:18 | 52.14629 | 20.98402 | 662 ft | 68 kts | 329° |
| 2026-05-05 07:19 | 52.15037 | 20.98063 | 509 ft | 65 kts | 326° |
| 2026-05-05 07:19 | 52.15404 | 20.97748 | 437 ft | 56 kts | 327° |
| 2026-05-05 07:19 | 52.15745 | 20.97462 | 399 ft | 53 kts | 326° |
| 2026-05-05 07:19 | 52.16068 | 20.97193 | 394 ft | 55 kts | 321° |
| 2026-05-05 07:20 | 52.16458 | 20.96847 | 547 ft | 74 kts | 323° |
| 2026-05-05 07:20 | 52.16956 | 20.96401 | 730 ft | 93 kts | 328° |
| 2026-05-05 07:20 | 52.17516 | 20.95853 | 1050 ft | 94 kts | 324° |
| 2026-05-05 07:20 | 52.18049 | 20.95200 | 1291 ft | 104 kts | 324° |
| 2026-05-05 07:21 | 52.18640 | 20.94577 | 1544 ft | 108 kts | 328° |
| 2026-05-05 07:21 | 52.19357 | 20.94176 | 1777 ft | 110 kts | 4° |
| 2026-05-05 07:21 | 52.19926 | 20.94920 | 1957 ft | 118 kts | 67° |
| 2026-05-05 07:21 | 52.20011 | 20.96251 | 2094 ft | 125 kts | 116° |
| 2026-05-05 07:22 | 52.19270 | 20.97122 | 2026 ft | 143 kts | 154° |
| 2026-05-05 07:22 | 52.18399 | 20.97967 | 2025 ft | 147 kts | 147° |
| 2026-05-05 07:22 | 52.17659 | 20.99066 | 2011 ft | 148 kts | 105° |
| 2026-05-05 07:22 | 52.17887 | 21.00483 | 2530 ft | 107 kts | 60° |
| 2026-05-05 07:23 | 52.18240 | 21.01599 | 2737 ft | 112 kts | 62° |
| 2026-05-05 07:23 | 52.18569 | 21.02782 | 2934 ft | 115 kts | 68° |
| 2026-05-05 07:23 | 52.18880 | 21.04062 | 3002 ft | 128 kts | 64° |
| 2026-05-05 07:23 | 52.19309 | 21.05363 | 3114 ft | 130 kts | 57° |
| 2026-05-05 07:24 | 52.19826 | 21.06692 | 3031 ft | 144 kts | 52° |
| 2026-05-05 07:24 | 52.20648 | 21.07579 | 3043 ft | 143 kts | 9° |
| 2026-05-05 07:24 | 52.21603 | 21.07186 | 2901 ft | 152 kts | 325° |
| 2026-05-05 07:24 | 52.22390 | 21.05994 | 2714 ft | 158 kts | 318° |
| 2026-05-05 07:25 | 52.23237 | 21.04834 | 2605 ft | 157 kts | 319° |
| 2026-05-05 07:25 | 52.24029 | 21.03602 | 2488 ft | 158 kts | 317° |
| 2026-05-05 07:25 | 52.24906 | 21.02542 | 2425 ft | 155 kts | 330° |
| 2026-05-05 07:25 | 52.25868 | 21.01801 | 2359 ft | 154 kts | 338° |
| 2026-05-05 07:26 | 52.26860 | 21.01137 | 2257 ft | 156 kts | 337° |
| 2026-05-05 07:26 | 52.27857 | 21.00374 | 2097 ft | 159 kts | 333° |
| 2026-05-05 07:26 | 52.28809 | 20.99479 | 2043 ft | 156 kts | 329° |
| 2026-05-05 07:26 | 52.29719 | 20.98581 | 2039 ft | 151 kts | 328° |
| 2026-05-05 07:27 | 52.30584 | 20.97630 | 2034 ft | 149 kts | 324° |
| 2026-05-05 07:27 | 52.31394 | 20.96556 | 1926 ft | 155 kts | 310° |
| 2026-05-05 07:27 | 52.31814 | 20.94990 | 1923 ft | 153 kts | 280° |
| 2026-05-05 07:27 | 52.31771 | 20.93260 | 1893 ft | 152 kts | 255° |
| 2026-05-05 07:28 | 52.31300 | 20.91686 | 1739 ft | 160 kts | 234° |
| 2026-05-05 07:28 | 52.30512 | 20.90380 | 1518 ft | 161 kts | 222° |
| 2026-05-05 07:28 | 52.29971 | 20.89438 | 1533 ft | 87 kts | 227° |
| 2026-05-05 07:28 | 52.29546 | 20.88858 | 1465 ft | 77 kts | 219° |
| 2026-05-05 07:29 | 52.29136 | 20.88332 | 1409 ft | 72 kts | 206° |
| 2026-05-05 07:29 | 52.28665 | 20.88150 | 1411 ft | 68 kts | 181° |
| 2026-05-05 07:29 | 52.28159 | 20.88169 | 1406 ft | 78 kts | 181° |
| 2026-05-05 07:29 | 52.27573 | 20.88336 | 1139 ft | 94 kts | 155° |
| 2026-05-05 07:30 | 52.27155 | 20.89069 | 722 ft | 96 kts | 110° |
| 2026-05-05 07:30 | 52.26924 | 20.90793 | 353 ft | 56 kts | 103° |
| 2026-05-05 07:30 | 52.26851 | 20.91318 | 351 ft | 37 kts | 102° |
| 2026-05-05 07:31 | 52.26810 | 20.91645 | 351 ft | 17 kts | 102° |
| 2026-05-05 07:31 | 52.26801 | 20.91648 | 351 ft | 2 kts | 249° |
| 2026-05-05 07:31 | 52.26805 | 20.91636 | 351 ft | 0 kts | 316° |
| 2026-05-05 07:32 | 52.26805 | 20.91635 | 351 ft | 0 kts | 316° |
| 2026-05-05 07:32 | 52.26910 | 20.91463 | 351 ft | 33 kts | 317° |
| 2026-05-05 07:32 | 52.27109 | 20.91177 | 351 ft | 29 kts | 320° |
| 2026-05-05 07:33 | 52.27206 | 20.91083 | 351 ft | 7 kts | 354° |
| 2026-05-05 07:33 | 52.27236 | 20.91101 | 351 ft | 3 kts | 25° |
| 2026-05-05 07:33 | 52.27239 | 20.91100 | 351 ft | 0 kts | 141° |